createdAt,value
2023-03-21T00:02:11.190Z,1000.80
2023-03-21T00:07:11.128Z,1000.74
2023-03-21T00:12:11.049Z,1000.71
2023-03-21T00:17:10.987Z,1000.61
2023-03-21T00:22:10.918Z,1000.67
2023-03-21T00:27:39.428Z,1000.58
2023-03-21T00:32:11.815Z,1000.59
2023-03-21T00:37:10.727Z,1000.53
2023-03-21T00:42:10.651Z,1000.62
2023-03-21T00:47:10.635Z,1000.57
2023-03-21T00:52:24.719Z,1000.58
2023-03-21T00:57:11.494Z,1000.50
2023-03-21T01:02:10.410Z,1000.51
2023-03-21T01:07:10.328Z,1000.43
2023-03-21T01:12:10.255Z,1000.49
2023-03-21T01:17:10.195Z,1000.42
2023-03-21T01:22:10.120Z,1000.46
2023-03-21T01:27:10.072Z,1000.46
2023-03-21T01:32:09.988Z,1000.48
2023-03-21T01:37:09.930Z,1000.43
2023-03-21T01:42:09.854Z,1000.33
2023-03-21T01:47:11.944Z,1000.35
2023-03-21T01:52:14.153Z,1000.31
2023-03-21T01:57:09.714Z,1000.29
2023-03-21T02:02:09.592Z,1000.18
2023-03-21T02:07:09.532Z,1000.24
2023-03-21T02:12:09.460Z,1000.10
2023-03-21T02:17:09.398Z,1000.11
2023-03-21T02:22:09.337Z,1000.04
2023-03-21T02:27:09.268Z,999.98
2023-03-21T02:32:18.215Z,1000.00
2023-03-21T02:37:10.174Z,999.96
2023-03-21T02:42:09.067Z,999.95
2023-03-21T02:47:09.104Z,999.99
2023-03-21T02:52:17.028Z,1000.04
2023-03-21T02:57:09.900Z,999.96
2023-03-21T03:02:08.802Z,999.98
2023-03-21T03:07:08.744Z,999.94
2023-03-21T03:12:08.670Z,999.92
2023-03-21T03:17:08.611Z,999.88
2023-03-21T03:22:08.537Z,999.88
2023-03-21T03:27:08.479Z,999.94
2023-03-21T03:32:08.564Z,999.94
2023-03-21T03:37:08.346Z,999.96
2023-03-21T03:42:21.721Z,999.98
2023-03-21T03:47:11.819Z,999.99
2023-03-21T03:52:08.146Z,999.92
2023-03-21T03:57:08.080Z,999.89
2023-03-21T04:02:08.075Z,999.82
2023-03-21T04:07:07.955Z,999.84
2023-03-21T04:12:07.885Z,999.82
2023-03-21T04:17:07.827Z,999.80
2023-03-21T04:22:07.757Z,999.79
2023-03-21T04:27:07.699Z,999.84
2023-03-21T04:32:07.666Z,999.73
2023-03-21T04:37:07.566Z,999.77
2023-03-21T04:42:07.495Z,999.74
2023-03-21T04:47:07.436Z,999.83
2023-03-21T04:52:07.360Z,999.80
2023-03-21T04:57:07.284Z,999.83
2023-03-21T05:02:07.207Z,999.80
2023-03-21T05:07:07.147Z,999.77
2023-03-21T05:12:07.075Z,999.77
2023-03-21T05:17:07.086Z,999.73
2023-03-21T05:22:06.960Z,999.69
2023-03-21T05:27:06.898Z,999.69
2023-03-21T05:32:06.827Z,999.79
2023-03-21T05:37:06.765Z,999.74
2023-03-21T05:42:06.696Z,999.76
2023-03-21T05:47:06.686Z,999.75
2023-03-21T05:52:06.565Z,999.71
2023-03-21T05:57:06.503Z,999.73
2023-03-21T06:02:06.428Z,999.71
2023-03-21T06:07:06.373Z,999.67
2023-03-21T06:12:06.305Z,999.78
2023-03-21T06:17:06.245Z,999.78
2023-03-21T06:22:06.180Z,999.74
2023-03-21T06:27:06.113Z,999.76
2023-03-21T06:32:06.036Z,999.78
2023-03-21T06:37:05.985Z,999.81
2023-03-21T06:42:05.914Z,999.85
2023-03-21T06:47:05.889Z,999.82
2023-03-21T06:52:05.784Z,999.84
2023-03-21T06:57:05.717Z,999.78
2023-03-21T07:02:05.762Z,999.81
2023-03-21T07:07:05.596Z,999.80
2023-03-21T07:12:05.522Z,999.79
2023-03-21T07:17:05.464Z,999.78
2023-03-21T07:22:05.382Z,999.77
2023-03-21T07:27:05.332Z,999.74
2023-03-21T07:32:05.248Z,999.71
2023-03-21T07:37:05.200Z,999.64
2023-03-21T07:42:05.115Z,999.68
2023-03-21T07:47:05.089Z,999.67
2023-03-21T07:52:05.184Z,999.67
2023-03-21T07:57:04.928Z,999.70
2023-03-21T08:02:04.929Z,999.69
2023-03-21T08:07:04.798Z,999.66
2023-03-21T08:12:04.721Z,999.64
2023-03-21T08:17:04.757Z,999.68
2023-03-21T08:22:04.587Z,999.64
2023-03-21T08:27:04.534Z,999.64
2023-03-21T08:32:04.458Z,999.59
2023-03-21T08:37:04.451Z,999.62
2023-03-21T08:42:04.336Z,999.59
2023-03-21T08:47:04.284Z,999.61
2023-03-21T08:52:04.197Z,999.50
2023-03-21T08:57:04.150Z,999.52
2023-03-21T09:02:04.106Z,999.46
2023-03-21T09:07:04.018Z,999.50
2023-03-21T09:12:03.932Z,999.41
2023-03-21T09:17:03.874Z,999.40
2023-03-21T09:22:03.800Z,999.39
2023-03-21T09:27:03.743Z,999.33
2023-03-21T09:32:03.670Z,999.36
2023-03-21T09:37:03.612Z,999.26
2023-03-21T09:42:03.559Z,999.24
2023-03-21T09:47:03.554Z,999.21
2023-03-21T09:52:03.420Z,999.24
2023-03-21T09:57:03.339Z,999.22
2023-03-21T10:02:03.288Z,999.21
2023-03-21T10:07:03.210Z,999.17
2023-03-21T10:12:03.169Z,999.12
2023-03-21T10:17:03.075Z,999.05
2023-03-21T10:22:04.114Z,998.97
2023-03-21T10:27:02.950Z,998.93
2023-03-21T10:32:03.020Z,998.90
2023-03-21T10:37:02.821Z,998.83
2023-03-21T10:42:02.775Z,998.80
2023-03-21T10:47:02.916Z,998.76
2023-03-21T10:52:02.630Z,998.70
2023-03-21T10:57:02.556Z,998.67
2023-03-21T11:02:02.544Z,998.61
2023-03-21T11:07:02.428Z,998.67
2023-03-21T11:12:02.380Z,998.58
2023-03-21T11:17:02.359Z,998.58
2023-03-21T11:22:02.257Z,998.49
2023-03-21T11:27:02.175Z,998.42
2023-03-21T11:32:02.159Z,998.42
2023-03-21T11:37:02.047Z,998.38
2023-03-21T11:42:01.997Z,998.33
2023-03-21T11:47:01.935Z,998.29
2023-03-21T11:52:01.864Z,998.26
2023-03-21T11:57:01.776Z,998.23
2023-03-21T12:02:01.718Z,998.18
2023-03-21T12:07:01.643Z,998.04
2023-03-21T12:12:01.592Z,997.82
2023-03-21T12:17:01.507Z,997.72
2023-03-21T12:22:01.451Z,997.77
2023-03-21T12:27:01.377Z,997.70
2023-03-21T12:32:01.325Z,997.72
2023-03-21T12:37:01.256Z,997.69
2023-03-21T12:42:01.182Z,997.57
2023-03-21T12:47:01.164Z,997.57
2023-03-21T12:52:01.054Z,997.50
2023-03-21T12:57:00.976Z,997.53
2023-03-21T13:02:00.920Z,997.42
2023-03-21T13:07:00.847Z,997.38
2023-03-21T13:12:00.784Z,997.33
2023-03-21T13:17:01.472Z,997.23
2023-03-21T13:22:00.666Z,997.14
2023-03-21T13:27:00.597Z,997.09
2023-03-21T13:32:00.576Z,997.12
2023-03-21T13:37:00.485Z,997.11
2023-03-21T13:42:00.393Z,997.00
2023-03-21T13:47:00.472Z,996.93
2023-03-21T13:52:00.306Z,996.91
2023-03-21T13:57:01.393Z,996.84
2023-03-21T14:02:00.146Z,996.77
2023-03-21T14:07:00.122Z,996.76
2023-03-21T14:12:07.023Z,996.67
2023-03-21T14:16:59.936Z,996.59
2023-03-21T14:21:59.877Z,996.48
2023-03-21T14:26:59.823Z,996.45
2023-03-21T14:31:59.752Z,996.41
2023-03-21T14:36:59.686Z,996.33
2023-03-21T14:41:59.613Z,996.31
2023-03-21T14:46:59.557Z,996.26
2023-03-21T14:51:59.480Z,996.27
2023-03-21T14:56:59.416Z,996.23
2023-03-21T15:01:59.403Z,996.18
2023-03-21T15:06:59.297Z,996.17
2023-03-21T15:11:59.215Z,996.17
2023-03-21T15:16:59.149Z,996.19
2023-03-21T15:21:59.080Z,996.08
2023-03-21T15:26:59.022Z,996.08
2023-03-21T15:31:58.958Z,996.04
2023-03-21T15:36:58.879Z,996.01
2023-03-21T15:41:58.827Z,996.01
2023-03-21T15:46:58.783Z,996.02
2023-03-21T15:51:58.685Z,996.00
2023-03-21T15:56:58.609Z,995.95
2023-03-21T16:01:58.599Z,995.96
2023-03-21T16:06:58.477Z,996.02
2023-03-21T16:11:58.416Z,996.02
2023-03-21T16:16:58.343Z,996.02
2023-03-21T16:21:58.287Z,996.11
2023-03-21T16:26:58.220Z,996.14
2023-03-21T16:31:58.192Z,996.12
2023-03-21T16:36:58.093Z,996.10
2023-03-21T16:41:58.023Z,996.13
2023-03-21T16:46:59.042Z,996.13
2023-03-21T16:51:57.895Z,996.21
2023-03-21T16:56:57.829Z,996.22
2023-03-21T17:01:57.765Z,996.27
2023-03-21T17:06:57.702Z,996.28
2023-03-21T17:11:57.632Z,996.38
2023-03-21T17:16:57.634Z,996.44
2023-03-21T17:21:57.513Z,996.51
2023-03-21T17:26:57.433Z,996.48
2023-03-21T17:31:57.375Z,996.50
2023-03-21T17:36:57.354Z,996.54
2023-03-21T17:41:57.235Z,996.57
2023-03-21T17:46:57.170Z,996.60
2023-03-21T17:51:57.104Z,996.67
2023-03-21T17:56:57.044Z,996.64
2023-03-21T18:01:57.086Z,996.62
2023-03-21T18:06:57.441Z,996.72
2023-03-21T18:11:56.839Z,996.66
2023-03-21T18:16:56.768Z,996.69
2023-03-21T18:21:56.724Z,996.73
2023-03-21T18:26:56.629Z,996.73
2023-03-21T18:32:05.868Z,996.73
2023-03-21T18:36:56.496Z,996.75
2023-03-21T18:41:58.011Z,996.80
2023-03-21T18:46:56.389Z,996.74
2023-03-21T18:51:56.330Z,996.79
2023-03-21T19:01:57.301Z,996.77
2023-03-21T19:06:56.090Z,996.83
2023-03-21T19:11:56.050Z,996.86
2023-03-21T19:17:43.601Z,996.85
2023-03-21T19:21:56.923Z,996.92
2023-03-21T19:26:55.819Z,996.78
2023-03-21T19:31:55.850Z,996.83
2023-03-21T19:36:55.744Z,996.80
2023-03-21T19:42:14.724Z,996.83
2023-03-21T19:46:56.636Z,996.79
2023-03-21T19:51:55.508Z,996.80
2023-03-21T19:56:55.436Z,996.73
2023-03-21T20:02:00.945Z,996.69
2023-03-21T20:06:56.333Z,996.72
2023-03-21T20:11:55.259Z,996.70
2023-03-21T20:16:55.547Z,996.66
2023-03-21T20:21:59.886Z,996.74
2023-03-21T20:26:55.058Z,996.71
2023-03-21T20:31:55.198Z,996.77
2023-03-21T20:36:54.999Z,996.72
2023-03-21T20:41:54.878Z,996.73
2023-03-21T20:46:54.817Z,996.68
2023-03-21T20:56:55.729Z,996.70
2023-03-21T21:01:54.781Z,996.77
2023-03-21T21:06:54.515Z,996.70
2023-03-21T21:12:10.254Z,996.73
2023-03-21T21:16:55.703Z,996.68
2023-03-21T21:21:54.569Z,996.70
2023-03-21T21:26:54.271Z,996.62
2023-03-21T21:31:54.204Z,996.66
2023-03-21T21:36:54.131Z,996.67
2023-03-21T21:41:54.074Z,996.60
2023-03-21T21:46:54.063Z,996.50
2023-03-21T21:51:53.947Z,996.46
2023-03-21T21:56:53.878Z,996.39
2023-03-21T22:01:53.801Z,996.40
2023-03-21T22:06:53.727Z,996.43
2023-03-21T22:11:53.668Z,996.41
2023-03-21T22:16:53.595Z,996.45
2023-03-21T22:21:53.538Z,996.43
2023-03-21T22:26:53.520Z,996.46
2023-03-21T22:31:53.531Z,996.42
2023-03-21T22:36:53.338Z,996.47
2023-03-21T22:41:53.292Z,996.40
2023-03-21T22:46:53.208Z,996.31
2023-03-21T22:51:53.163Z,996.33
2023-03-21T22:56:53.081Z,996.43
2023-03-21T23:01:53.033Z,996.30
2023-03-21T23:06:52.957Z,996.21
2023-03-21T23:11:52.896Z,996.25
2023-03-21T23:16:52.827Z,996.18
2023-03-21T23:21:52.755Z,996.20
2023-03-21T23:26:52.696Z,996.19
2023-03-21T23:31:52.622Z,996.11
2023-03-21T23:36:52.566Z,996.14
2023-03-21T23:41:52.500Z,996.21
2023-03-21T23:46:52.429Z,996.17
2023-03-21T23:51:52.360Z,996.24
2023-03-21T23:56:52.283Z,996.21
